Time;durP1;ratioP1;P1;durP2;ratioP2;P2;SDS_P1;SDS_P2;PMS_P1;PMS_P2;Temp;Humidity;BMP_temperature;BMP_pressure;BME280_temperature;BME280_humidity;BME280_pressure;Samples;Min_cycle;Max_cycle;Signal;HPM_P1;HPM_P2
2023/05/29 00:00:05;;;;;;;;;;;;;;;;;;5034663;28;19944;-24
2023/05/29 00:02:31;;;;;;;;;;;;;;;;;;5034589;28;19909;-24
2023/05/29 00:04:57;;;;;;;;;;;;;;;;;;5034360;28;19955;-24
2023/05/29 00:07:23;;;;;;;;;;;;;;;;;;5033737;28;20332;-27
2023/05/29 00:09:49;;;;;;;;;;;;;;;;;;5034606;28;19913;-24
2023/05/29 00:12:15;;;;;;;;;;;;;;;;;;5034773;28;19909;-25
2023/05/29 00:14:41;;;;;;;;;;;;;;;;;;5034555;28;19917;-29
2023/05/29 00:17:07;;;;;;;;;;;;;;;;;;5034590;28;19909;-24
2023/05/29 00:19:33;;;;;;;;;;;;;;;;;;5034776;28;19931;-26
2023/05/29 00:21:59;;;;;;;;;;;;;;;;;;5034342;28;19913;-24
2023/05/29 00:24:25;;;;;;;;;;;;;;;;;;5034375;28;19916;-26
2023/05/29 00:26:51;;;;;;;;;;;;;;;;;;5036757;28;19964;-23
2023/05/29 00:29:17;;;;;;;;;;;;;;;;;;5037537;28;19936;-24
2023/05/29 00:31:43;;;;;;;;;;;;;;;;;;5038424;28;19909;-23
2023/05/29 00:34:09;;;;;;;;;;;;;;;;;;5037316;28;19913;-23
2023/05/29 00:36:35;;;;;;;;;;;;;;;;;;5038359;28;20008;-26
2023/05/29 00:39:01;;;;;;;;;;;;;;;;;;5038350;28;19913;-26
2023/05/29 00:41:26;;;;;;;;;;;;;;;;;;5038508;28;19920;-27
2023/05/29 00:43:52;;;;;;;;;;;;;;;;;;5038405;28;19956;-25
2023/05/29 00:46:20;;;;;;;;;;;;;;;;;;5038181;28;19917;-28
2023/05/29 00:48:46;;;;;;;;;;;;;;;;;;5038139;28;19946;-27
2023/05/29 00:51:12;;;;;;;;;;;;;;;;;;5038380;28;19909;-23
2023/05/29 00:53:38;;;;;;;;;;;;;;;;;;5037973;28;19940;-27
2023/05/29 00:56:04;;;;;;;;;;;;;;;;;;5037962;28;19909;-25
2023/05/29 00:58:30;;;;;;;;;;;;;;;;;;5038215;28;20018;-23
2023/05/29 01:00:56;;;;;;;;;;;;;;;;;;5038113;28;19940;-27
2023/05/29 01:03:22;;;;;;;;;;;;;;;;;;5037824;28;19913;-25
2023/05/29 01:05:48;;;;;;;;;;;;;;;;;;5037541;28;19925;-28
2023/05/29 01:08:14;;;;;;;;;;;;;;;;;;5037818;28;20000;-26
2023/05/29 01:10:42;;;;;;;;;;;;;;;;;;5036789;28;19909;-23
2023/05/29 01:13:08;;;;;;;;;;;;;;;;;;5037908;28;20001;-26
2023/05/29 01:15:34;;;;;;;;;;;;;;;;;;5037655;28;19931;-23
2023/05/29 01:18:01;;;;;;;;;;;;;;;;;;5037881;28;19917;-28
2023/05/29 01:20:27;;;;;;;;;;;;;;;;;;5037469;28;19909;-27
2023/05/29 01:22:53;;;;;;;;;;;;;;;;;;5037404;28;19920;-27
2023/05/29 01:25:19;;;;;;;;;;;;;;;;;;5037458;28;20386;-25
2023/05/29 01:27:47;;;;;;;;;;;;;;;;;;5037432;28;20237;-27
2023/05/29 01:30:13;;;;;;;;;;;;;;;;;;5037696;28;19917;-26
2023/05/29 01:32:39;;;;;;;;;;;;;;;;;;5037155;28;20312;-28
2023/05/29 01:35:05;;;;;;;;;;;;;;;;;;5037289;28;19913;-24
2023/05/29 01:37:31;;;;;;;;;;;;;;;;;;5036961;28;19916;-27
2023/05/29 01:39:57;;;;;;;;;;;;;;;;;;5037432;28;19909;-29
2023/05/29 01:42:22;;;;;;;;;;;;;;;;;;5037274;28;20264;-26
2023/05/29 01:44:48;;;;;;;;;;;;;;;;;;5036995;28;19990;-30
2023/05/29 01:47:14;;;;;;;;;;;;;;;;;;5037074;28;20388;-24
2023/05/29 01:49:41;;;;;;;;;;;;;;;;;;5036945;28;20252;-24
2023/05/29 01:52:07;;;;;;;;;;;;;;;;;;5036926;28;19920;-27
2023/05/29 01:54:33;;;;;;;;;;;;;;;;;;5036941;28;19977;-27
2023/05/29 01:56:59;;;;;;;;;;;;;;;;;;5036905;28;20051;-27
2023/05/29 01:59:26;;;;;;;;;;;;;;;;;;5036829;28;19959;-26
2023/05/29 02:01:52;;;;;;;;;;;;;;;;;;5036979;28;19953;-25
2023/05/29 02:04:18;;;;;;;;;;;;;;;;;;5036511;28;20014;-24
2023/05/29 02:06:44;;;;;;;;;;;;;;;;;;5036745;28;19913;-25
2023/05/29 02:09:10;;;;;;;;;;;;;;;;;;5036622;28;20352;-27
2023/05/29 02:11:36;;;;;;;;;;;;;;;;;;5036858;28;19909;-23
2023/05/29 02:14:03;;;;;;;;;;;;;;;;;;5036744;28;19940;-26
2023/05/29 02:16:29;;;;;;;;;;;;;;;;;;5036496;28;19963;-24
2023/05/29 02:18:55;;;;;;;;;;;;;;;;;;5036721;28;19913;-24
2023/05/29 02:21:21;;;;;;;;;;;;;;;;;;5036443;28;19909;-27
2023/05/29 02:23:47;;;;;;;;;;;;;;;;;;5036316;28;19920;-28
2023/05/29 02:26:15;;;;;;;;;;;;;;;;;;5036491;28;19913;-24
2023/05/29 02:28:40;;;;;;;;;;;;;;;;;;5036567;28;19943;-27
2023/05/29 02:31:06;;;;;;;;;;;;;;;;;;5036226;28;20344;-26
2023/05/29 02:33:32;;;;;;;;;;;;;;;;;;5036098;28;19952;-24
2023/05/29 02:35:58;;;;;;;;;;;;;;;;;;5036136;28;19974;-22
2023/05/29 02:38:24;;;;;;;;;;;;;;;;;;5036094;28;19948;-23
2023/05/29 02:40:50;;;;;;;;;;;;;;;;;;5036545;28;20337;-23
2023/05/29 02:43:16;;;;;;;;;;;;;;;;;;5035981;28;20344;-24
2023/05/29 02:45:42;;;;;;;;;;;;;;;;;;5035897;28;20322;-25
2023/05/29 02:48:08;;;;;;;;;;;;;;;;;;5035819;28;20361;-27
2023/05/29 02:50:34;;;;;;;;;;;;;;;;;;5035797;28;20374;-26
2023/05/29 02:53:00;;;;;;;;;;;;;;;;;;5035701;28;19909;-22
2023/05/29 02:55:26;;;;;;;;;;;;;;;;;;5035983;28;20008;-26
2023/05/29 02:57:55;;;;;;;;;;;;;;;;;;5034703;28;20333;-27
2023/05/29 03:00:21;;;;;;;;;;;;;;;;;;5035909;28;20295;-23
2023/05/29 03:02:46;;;;;;;;;;;;;;;;;;5035544;28;19909;-26
2023/05/29 03:05:12;;;;;;;;;;;;;;;;;;5035428;28;19957;-30
2023/05/29 03:07:38;;;;;;;;;;;;;;;;;;5035852;28;19920;-25
2023/05/29 03:10:04;;;;;;;;;;;;;;;;;;5035477;28;19920;-29
2023/05/29 03:12:30;;;;;;;;;;;;;;;;;;5035671;28;19920;-26
2023/05/29 03:14:57;;;;;;;;;;;;;;;;;;5035443;28;20006;-24
2023/05/29 03:17:23;;;;;;;;;;;;;;;;;;5035403;28;19916;-26
2023/05/29 03:19:49;;;;;;;;;;;;;;;;;;5035667;28;19913;-23
2023/05/29 03:22:15;;;;;;;;;;;;;;;;;;5035314;28;19940;-23
2023/05/29 03:24:41;;;;;;;;;;;;;;;;;;5035194;28;19913;-24
2023/05/29 03:27:07;;;;;;;;;;;;;;;;;;5035226;28;20252;-25
2023/05/29 03:29:33;;;;;;;;;;;;;;;;;;5035130;28;19909;-25
2023/05/29 03:31:59;;;;;;;;;;;;;;;;;;5035276;28;19913;-26
2023/05/29 03:34:25;;;;;;;;;;;;;;;;;;5035077;28;20439;-25
2023/05/29 03:36:51;;;;;;;;;;;;;;;;;;5035061;28;20368;-23
2023/05/29 03:39:17;;;;;;;;;;;;;;;;;;5035239;28;19935;-30
2023/05/29 03:41:42;;;;;;;;;;;;;;;;;;5034990;28;19909;-23
2023/05/29 03:44:09;;;;;;;;;;;;;;;;;;5034872;28;19920;-23
2023/05/29 03:46:35;;;;;;;;;;;;;;;;;;5034646;28;20043;-25
2023/05/29 03:49:01;;;;;;;;;;;;;;;;;;5034820;28;19959;-25
2023/05/29 03:51:27;;;;;;;;;;;;;;;;;;5034903;28;20315;-27
2023/05/29 03:53:53;;;;;;;;;;;;;;;;;;5034928;28;20344;-24
2023/05/29 03:56:19;;;;;;;;;;;;;;;;;;5034851;28;19909;-26
2023/05/29 03:58:45;;;;;;;;;;;;;;;;;;5035048;28;19909;-24
2023/05/29 04:03:47;;;;;;;;;;;;;;;;;;5193188;22;20344;-21
2023/05/29 04:06:13;;;;;;;;;;;;;;;;;;5034676;28;19928;-19
2023/05/29 04:08:39;;;;;;;;;;;;;;;;;;5033664;28;19909;-21
2023/05/29 04:11:05;;;;;;;;;;;;;;;;;;5034551;28;19909;-20
2023/05/29 04:13:31;;;;;;;;;;;;;;;;;;5034558;28;19971;-22
2023/05/29 04:15:57;;;;;;;;;;;;;;;;;;5034571;28;20067;-22
2023/05/29 04:18:23;;;;;;;;;;;;;;;;;;5033590;28;19936;-22
2023/05/29 04:20:49;;;;;;;;;;;;;;;;;;5034828;28;20351;-20
2023/05/29 04:23:15;;;;;;;;;;;;;;;;;;5034787;28;20291;-20
2023/05/29 04:25:41;;;;;;;;;;;;;;;;;;5033444;28;19995;-21
2023/05/29 04:28:07;;;;;;;;;;;;;;;;;;5033518;28;19909;-21
2023/05/29 04:30:33;;;;;;;;;;;;;;;;;;5034481;28;20232;-22
2023/05/29 04:32:59;;;;;;;;;;;;;;;;;;5034379;28;19996;-21
2023/05/29 04:35:28;;;;;;;;;;;;;;;;;;5034435;28;19941;-20
2023/05/29 04:37:54;;;;;;;;;;;;;;;;;;5034345;28;19923;-21
2023/05/29 04:40:20;;;;;;;;;;;;;;;;;;5033358;28;19996;-23
2023/05/29 04:42:46;;;;;;;;;;;;;;;;;;5034525;28;19909;-21
2023/05/29 04:45:12;;;;;;;;;;;;;;;;;;5034235;28;19913;-20
2023/05/29 04:47:42;;;;;;;;;;;;;;;;;;5034288;28;19963;-21
2023/05/29 04:50:09;;;;;;;;;;;;;;;;;;5034239;28;19909;-22
2023/05/29 04:52:35;;;;;;;;;;;;;;;;;;5034235;28;20339;-21
2023/05/29 04:55:01;;;;;;;;;;;;;;;;;;5034198;28;20047;-21
2023/05/29 04:57:27;;;;;;;;;;;;;;;;;;5033207;28;19909;-19
2023/05/29 04:59:53;;;;;;;;;;;;;;;;;;5034430;28;19919;-21
2023/05/29 05:02:19;;;;;;;;;;;;;;;;;;5033166;28;20311;-21
2023/05/29 05:04:45;;;;;;;;;;;;;;;;;;5034114;28;19913;-22
2023/05/29 05:07:12;;;;;;;;;;;;;;;;;;5034391;28;20350;-24
2023/05/29 05:09:38;;;;;;;;;;;;;;;;;;5034371;28;19920;-21
2023/05/29 05:12:04;;;;;;;;;;;;;;;;;;5035051;28;20347;-20
2023/05/29 05:14:30;;;;;;;;;;;;;;;;;;5037654;28;20276;-21
2023/05/29 05:16:56;;;;;;;;;;;;;;;;;;5037645;28;20248;-19
2023/05/29 05:19:22;;;;;;;;;;;;;;;;;;5037861;28;19910;-22
2023/05/29 05:21:48;;;;;;;;;;;;;;;;;;5037449;28;20007;-21
2023/05/29 05:24:13;;;;;;;;;;;;;;;;;;5037764;28;19941;-20
2023/05/29 05:26:39;;;;;;;;;;;;;;;;;;5037441;28;19964;-21
2023/05/29 05:29:05;;;;;;;;;;;;;;;;;;5037342;28;19909;-21
2023/05/29 05:31:31;;;;;;;;;;;;;;;;;;5037631;28;19996;-21
2023/05/29 05:33:57;;;;;;;;;;;;;;;;;;5036212;28;19990;-20
2023/05/29 05:36:23;;;;;;;;;;;;;;;;;;5037305;28;19925;-20
2023/05/29 05:38:49;;;;;;;;;;;;;;;;;;5037527;28;19923;-22
2023/05/29 05:41:15;;;;;;;;;;;;;;;;;;5037161;28;19975;-20
2023/05/29 05:43:41;;;;;;;;;;;;;;;;;;5037142;28;19910;-21
2023/05/29 05:46:07;;;;;;;;;;;;;;;;;;5037054;28;20298;-20
2023/05/29 05:48:33;;;;;;;;;;;;;;;;;;5037019;28;20251;-20
2023/05/29 05:50:59;;;;;;;;;;;;;;;;;;5037001;28;19910;-20
2023/05/29 05:53:25;;;;;;;;;;;;;;;;;;5036993;28;19909;-20
2023/05/29 05:55:51;;;;;;;;;;;;;;;;;;5036943;28;19909;-20
2023/05/29 05:58:17;;;;;;;;;;;;;;;;;;5037218;28;20004;-20
2023/05/29 06:00:43;;;;;;;;;;;;;;;;;;5037093;28;20257;-22
2023/05/29 06:03:09;;;;;;;;;;;;;;;;;;5036332;28;20378;-21
2023/05/29 06:05:36;;;;;;;;;;;;;;;;;;5036681;28;19913;-21
2023/05/29 06:08:02;;;;;;;;;;;;;;;;;;5036703;28;20338;-21
2023/05/29 06:10:28;;;;;;;;;;;;;;;;;;5036929;28;19910;-21
2023/05/29 06:12:54;;;;;;;;;;;;;;;;;;5036771;28;19940;-21
2023/05/29 06:15:20;;;;;;;;;;;;;;;;;;5036589;28;19916;-20
2023/05/29 06:17:46;;;;;;;;;;;;;;;;;;5036506;28;20453;-21
2023/05/29 06:20:13;;;;;;;;;;;;;;;;;;5036464;28;20390;-21
2023/05/29 06:22:39;;;;;;;;;;;;;;;;;;5036314;28;19909;-22
2023/05/29 06:25:06;;;;;;;;;;;;;;;;;;5035547;28;19920;-21
2023/05/29 06:27:32;;;;;;;;;;;;;;;;;;5036557;28;19941;-21
2023/05/29 06:29:58;;;;;;;;;;;;;;;;;;5036300;28;20374;-20
2023/05/29 06:32:24;;;;;;;;;;;;;;;;;;5036159;28;20264;-20
2023/05/29 06:34:49;;;;;;;;;;;;;;;;;;5036230;28;19913;-22
2023/05/29 06:37:15;;;;;;;;;;;;;;;;;;5036438;28;19970;-22
2023/05/29 06:39:42;;;;;;;;;;;;;;;;;;5036081;28;19916;-20
2023/05/29 06:42:08;;;;;;;;;;;;;;;;;;5035919;28;19909;-22
2023/05/29 06:44:34;;;;;;;;;;;;;;;;;;5036615;28;19913;-21
2023/05/29 06:47:00;;;;;;;;;;;;;;;;;;5036227;28;20340;-20
2023/05/29 06:49:26;;;;;;;;;;;;;;;;;;5035906;28;19919;-20
2023/05/29 06:51:52;;;;;;;;;;;;;;;;;;5036227;28;19955;-22
2023/05/29 06:54:18;;;;;;;;;;;;;;;;;;5035821;28;19909;-21
2023/05/29 06:56:44;;;;;;;;;;;;;;;;;;5035700;28;19909;-21
2023/05/29 06:59:10;;;;;;;;;;;;;;;;;;5036182;28;19913;-22
2023/05/29 07:01:36;;;;;;;;;;;;;;;;;;5035657;28;20355;-21
2023/05/29 07:04:02;;;;;;;;;;;;;;;;;;5035415;28;19921;-21
2023/05/29 07:06:28;;;;;;;;;;;;;;;;;;5035745;28;20261;-22
2023/05/29 07:08:54;;;;;;;;;;;;;;;;;;5035774;28;19913;-21
2023/05/29 07:11:20;;;;;;;;;;;;;;;;;;5035451;28;20044;-21
2023/05/29 07:13:46;;;;;;;;;;;;;;;;;;5034476;28;19909;-21
2023/05/29 07:16:12;;;;;;;;;;;;;;;;;;5035450;28;19909;-21
2023/05/29 07:18:38;;;;;;;;;;;;;;;;;;5035303;28;19916;-23
2023/05/29 07:21:04;;;;;;;;;;;;;;;;;;5034281;28;19988;-21
2023/05/29 07:23:30;;;;;;;;;;;;;;;;;;5034213;28;19913;-21
2023/05/29 07:25:56;;;;;;;;;;;;;;;;;;5035124;28;19945;-20
2023/05/29 07:28:22;;;;;;;;;;;;;;;;;;5034181;28;19988;-22
2023/05/29 07:30:48;;;;;;;;;;;;;;;;;;5034179;28;19909;-21
2023/05/29 07:33:14;;;;;;;;;;;;;;;;;;5035268;28;20003;-21
2023/05/29 07:35:40;;;;;;;;;;;;;;;;;;5033842;28;19909;-21
2023/05/29 07:38:06;;;;;;;;;;;;;;;;;;5035286;28;19909;-22
2023/05/29 07:40:32;;;;;;;;;;;;;;;;;;5034964;28;19939;-20
2023/05/29 07:42:58;;;;;;;;;;;;;;;;;;5034885;28;19920;-25
2023/05/29 07:45:24;;;;;;;;;;;;;;;;;;5034902;28;19913;-21
2023/05/29 07:47:50;;;;;;;;;;;;;;;;;;5033989;28;19928;-23
2023/05/29 07:50:16;;;;;;;;;;;;;;;;;;5035186;28;19909;-22
2023/05/29 07:52:42;;;;;;;;;;;;;;;;;;5035029;28;20233;-20
2023/05/29 07:55:08;;;;;;;;;;;;;;;;;;5034749;28;19919;-22
2023/05/29 07:57:34;;;;;;;;;;;;;;;;;;5033756;28;19978;-20
2023/05/29 08:00:05;;;;;;;;;;;;;;;;;;5034788;28;20378;-22
2023/05/29 08:02:31;;;;;;;;;;;;;;;;;;5034577;28;19928;-21
2023/05/29 08:04:57;;;;;;;;;;;;;;;;;;5034679;28;19913;-20
2023/05/29 08:07:23;;;;;;;;;;;;;;;;;;5035349;28;19913;-21
2023/05/29 08:09:49;;;;;;;;;;;;;;;;;;5034624;28;19913;-20
2023/05/29 08:12:15;;;;;;;;;;;;;;;;;;5034544;28;19909;-21
2023/05/29 08:14:41;;;;;;;;;;;;;;;;;;5035139;28;20335;-22
2023/05/29 08:17:07;;;;;;;;;;;;;;;;;;5034609;28;20381;-21
2023/05/29 08:19:33;;;;;;;;;;;;;;;;;;5034545;28;19913;-20
2023/05/29 08:21:59;;;;;;;;;;;;;;;;;;5034439;28;20004;-20
2023/05/29 08:24:25;;;;;;;;;;;;;;;;;;5034478;28;19909;-22
2023/05/29 08:26:51;;;;;;;;;;;;;;;;;;5034476;28;19919;-22
2023/05/29 08:29:17;;;;;;;;;;;;;;;;;;5034411;28;19909;-22
2023/05/29 08:31:43;;;;;;;;;;;;;;;;;;5034353;28;20078;-21
2023/05/29 08:34:10;;;;;;;;;;;;;;;;;;5034458;28;19909;-21
2023/05/29 08:36:36;;;;;;;;;;;;;;;;;;5034343;28;19909;-21
2023/05/29 08:39:02;;;;;;;;;;;;;;;;;;5034337;28;19920;-20
2023/05/29 08:41:29;;;;;;;;;;;;;;;;;;5034405;28;19975;-21
2023/05/29 08:43:55;;;;;;;;;;;;;;;;;;5034945;28;19909;-20
2023/05/29 08:46:21;;;;;;;;;;;;;;;;;;5034490;28;19940;-22
2023/05/29 08:48:47;;;;;;;;;;;;;;;;;;5038004;28;20348;-20
2023/05/29 08:51:13;;;;;;;;;;;;;;;;;;5038360;28;19912;-21
2023/05/29 08:53:40;;;;;;;;;;;;;;;;;;5038042;28;19936;-21
2023/05/29 08:56:06;;;;;;;;;;;;;;;;;;5037967;28;19919;-21
2023/05/29 08:58:32;;;;;;;;;;;;;;;;;;5038263;28;19999;-21
2023/05/29 09:00:58;;;;;;;;;;;;;;;;;;5037993;28;19939;-21
2023/05/29 09:03:24;;;;;;;;;;;;;;;;;;5037680;28;20020;-21
2023/05/29 09:05:50;;;;;;;;;;;;;;;;;;5037793;28;19956;-20
2023/05/29 09:08:16;;;;;;;;;;;;;;;;;;5037846;28;19979;-22
2023/05/29 09:10:43;;;;;;;;;;;;;;;;;;5038086;28;20291;-21
2023/05/29 09:13:09;;;;;;;;;;;;;;;;;;5036728;28;20256;-21
2023/05/29 09:15:35;;;;;;;;;;;;;;;;;;5037743;28;19909;-21
2023/05/29 09:18:01;;;;;;;;;;;;;;;;;;5037684;28;20344;-21
2023/05/29 09:20:28;;;;;;;;;;;;;;;;;;5037606;28;19920;-21
2023/05/29 09:22:54;;;;;;;;;;;;;;;;;;5037483;28;19909;-23
2023/05/29 09:25:22;;;;;;;;;;;;;;;;;;5037698;28;19925;-20
2023/05/29 09:27:48;;;;;;;;;;;;;;;;;;5037438;28;20264;-23
2023/05/29 09:30:14;;;;;;;;;;;;;;;;;;5037702;28;19913;-20
2023/05/29 09:32:40;;;;;;;;;;;;;;;;;;5037264;28;20383;-21
2023/05/29 09:35:06;;;;;;;;;;;;;;;;;;5037297;28;19955;-21
2023/05/29 09:37:32;;;;;;;;;;;;;;;;;;5037573;28;20303;-22
2023/05/29 09:39:58;;;;;;;;;;;;;;;;;;5037331;28;19959;-20
2023/05/29 09:42:24;;;;;;;;;;;;;;;;;;5037200;28;20346;-22
2023/05/29 09:44:53;;;;;;;;;;;;;;;;;;5037155;28;19913;-21
2023/05/29 09:47:19;;;;;;;;;;;;;;;;;;5037409;28;19909;-21
2023/05/29 09:49:46;;;;;;;;;;;;;;;;;;5037315;28;19909;-22
2023/05/29 09:52:14;;;;;;;;;;;;;;;;;;5037002;28;20295;-21
2023/05/29 09:54:41;;;;;;;;;;;;;;;;;;5036963;28;19909;-22
2023/05/29 09:57:07;;;;;;;;;;;;;;;;;;5037201;28;19921;-23
2023/05/29 09:59:32;;;;;;;;;;;;;;;;;;5036730;28;20228;-20
2023/05/29 10:01:58;;;;;;;;;;;;;;;;;;5036724;28;20344;-21
2023/05/29 10:04:25;;;;;;;;;;;;;;;;;;5036624;28;19947;-20
2023/05/29 10:06:51;;;;;;;;;;;;;;;;;;5036927;28;19913;-20
2023/05/29 10:09:17;;;;;;;;;;;;;;;;;;5035740;28;20185;-21
2023/05/29 10:11:43;;;;;;;;;;;;;;;;;;5036580;28;19917;-24
2023/05/29 10:14:09;;;;;;;;;;;;;;;;;;5036603;28;19909;-22
2023/05/29 10:16:37;;;;;;;;;;;;;;;;;;5035600;28;19913;-21
2023/05/29 10:19:06;;;;;;;;;;;;;;;;;;5035582;28;19909;-20
2023/05/29 10:21:32;;;;;;;;;;;;;;;;;;5036769;28;19939;-20
2023/05/29 10:23:58;;;;;;;;;;;;;;;;;;5036301;28;19917;-29
2023/05/29 10:26:26;;;;;;;;;;;;;;;;;;5036304;28;19917;-20
2023/05/29 10:28:52;;;;;;;;;;;;;;;;;;5036597;28;20268;-21
2023/05/29 10:31:18;;;;;;;;;;;;;;;;;;5036316;28;19917;-22
2023/05/29 10:33:44;;;;;;;;;;;;;;;;;;5036455;28;19939;-20
2023/05/29 10:36:10;;;;;;;;;;;;;;;;;;5036438;28;19910;-20
2023/05/29 10:38:36;;;;;;;;;;;;;;;;;;5036450;28;20256;-20
2023/05/29 10:41:02;;;;;;;;;;;;;;;;;;5036074;28;19909;-22
2023/05/29 10:43:28;;;;;;;;;;;;;;;;;;5035899;28;20003;-22
2023/05/29 10:45:54;;;;;;;;;;;;;;;;;;5035877;28;19979;-22
2023/05/29 10:48:20;;;;;;;;;;;;;;;;;;5036173;28;19967;-20
2023/05/29 10:50:46;;;;;;;;;;;;;;;;;;5036139;28;19909;-22
2023/05/29 10:53:12;;;;;;;;;;;;;;;;;;5034799;28;20262;-21
2023/05/29 10:55:38;;;;;;;;;;;;;;;;;;5035813;28;19920;-22
2023/05/29 10:58:04;;;;;;;;;;;;;;;;;;5035807;28;20245;-21
2023/05/29 11:00:30;;;;;;;;;;;;;;;;;;5035754;28;19909;-21
2023/05/29 11:02:56;;;;;;;;;;;;;;;;;;5035424;28;19921;-21
2023/05/29 11:05:23;;;;;;;;;;;;;;;;;;5035592;28;19974;-20
2023/05/29 11:07:49;;;;;;;;;;;;;;;;;;5035548;28;19913;-19
2023/05/29 11:10:15;;;;;;;;;;;;;;;;;;5034976;28;20051;-20
2023/05/29 11:12:41;;;;;;;;;;;;;;;;;;5035410;28;19945;-21
2023/05/29 11:15:07;;;;;;;;;;;;;;;;;;5035641;28;19919;-22
2023/05/29 11:17:33;;;;;;;;;;;;;;;;;;5035444;28;19970;-23
2023/05/29 11:19:59;;;;;;;;;;;;;;;;;;5034280;28;19909;-21
2023/05/29 11:22:25;;;;;;;;;;;;;;;;;;5035528;28;19916;-22
2023/05/29 11:24:52;;;;;;;;;;;;;;;;;;5035189;28;20328;-21
2023/05/29 11:27:18;;;;;;;;;;;;;;;;;;5035239;28;20340;-20
2023/05/29 11:29:45;;;;;;;;;;;;;;;;;;5035464;28;19910;-21
2023/05/29 11:32:11;;;;;;;;;;;;;;;;;;5035433;28;19963;-21
2023/05/29 11:34:37;;;;;;;;;;;;;;;;;;5035100;28;19913;-21
2023/05/29 11:37:02;;;;;;;;;;;;;;;;;;5035099;28;19909;-20
2023/05/29 11:39:28;;;;;;;;;;;;;;;;;;5034121;28;19928;-20
2023/05/29 11:41:54;;;;;;;;;;;;;;;;;;5033916;28;20006;-21
2023/05/29 11:44:20;;;;;;;;;;;;;;;;;;5033993;28;19956;-22
2023/05/29 11:46:46;;;;;;;;;;;;;;;;;;5034898;28;19924;-22
2023/05/29 11:49:12;;;;;;;;;;;;;;;;;;5034934;28;19916;-21
2023/05/29 11:51:38;;;;;;;;;;;;;;;;;;5034903;28;20268;-21
2023/05/29 11:54:04;;;;;;;;;;;;;;;;;;5034665;28;19909;-20
2023/05/29 11:56:30;;;;;;;;;;;;;;;;;;5034871;28;19920;-21
2023/05/29 11:58:57;;;;;;;;;;;;;;;;;;5035479;28;19933;-22
2023/05/29 12:01:24;;;;;;;;;;;;;;;;;;5034970;28;19913;-21
2023/05/29 12:03:50;;;;;;;;;;;;;;;;;;5034417;28;19921;-22
2023/05/29 12:06:16;;;;;;;;;;;;;;;;;;5034633;28;19913;-22
2023/05/29 12:08:42;;;;;;;;;;;;;;;;;;5034991;28;19934;-21
2023/05/29 12:11:10;;;;;;;;;;;;;;;;;;5033911;28;20206;-20
2023/05/29 12:13:36;;;;;;;;;;;;;;;;;;5034852;28;19957;-22
2023/05/29 12:16:02;;;;;;;;;;;;;;;;;;5034887;28;19963;-22
2023/05/29 12:18:29;;;;;;;;;;;;;;;;;;5034639;28;19957;-20
2023/05/29 12:20:55;;;;;;;;;;;;;;;;;;5034853;28;19941;-19
2023/05/29 12:23:22;;;;;;;;;;;;;;;;;;5037794;28;20324;-21
2023/05/29 12:25:48;;;;;;;;;;;;;;;;;;5038630;28;19913;-19
2023/05/29 12:28:14;;;;;;;;;;;;;;;;;;5038636;28;19971;-23
2023/05/29 12:30:41;;;;;;;;;;;;;;;;;;5037549;28;20252;-22
2023/05/29 12:33:07;;;;;;;;;;;;;;;;;;5037453;28;20364;-23
2023/05/29 12:35:33;;;;;;;;;;;;;;;;;;5038516;28;19951;-22
2023/05/29 12:37:59;;;;;;;;;;;;;;;;;;5038402;28;19916;-22
2023/05/29 12:40:25;;;;;;;;;;;;;;;;;;5038420;28;19936;-21
2023/05/29 12:42:51;;;;;;;;;;;;;;;;;;5038504;28;19919;-20
2023/05/29 12:45:17;;;;;;;;;;;;;;;;;;5038483;28;20331;-21
2023/05/29 12:47:43;;;;;;;;;;;;;;;;;;5038232;28;20325;-20
2023/05/29 12:50:09;;;;;;;;;;;;;;;;;;5038427;28;20336;-22
2023/05/29 12:52:35;;;;;;;;;;;;;;;;;;5037118;28;19913;-22
2023/05/29 12:55:01;;;;;;;;;;;;;;;;;;5038137;28;20356;-20
2023/05/29 12:57:27;;;;;;;;;;;;;;;;;;5038115;28;19910;-20
2023/05/29 12:59:53;;;;;;;;;;;;;;;;;;5038071;28;19909;-21
2023/05/29 13:02:19;;;;;;;;;;;;;;;;;;5037684;28;19909;-20
2023/05/29 13:04:45;;;;;;;;;;;;;;;;;;5038135;28;20000;-20
2023/05/29 13:07:11;;;;;;;;;;;;;;;;;;5037887;28;20328;-20
2023/05/29 13:09:37;;;;;;;;;;;;;;;;;;5038132;28;19996;-20
2023/05/29 13:12:03;;;;;;;;;;;;;;;;;;5037955;28;19910;-22
2023/05/29 13:14:28;;;;;;;;;;;;;;;;;;5038045;28;20355;-20
2023/05/29 13:16:54;;;;;;;;;;;;;;;;;;5037612;28;19909;-21
2023/05/29 13:19:20;;;;;;;;;;;;;;;;;;5037656;28;19917;-21
2023/05/29 13:21:48;;;;;;;;;;;;;;;;;;5037558;28;20331;-20
2023/05/29 13:24:14;;;;;;;;;;;;;;;;;;5037604;28;20328;-21
2023/05/29 13:26:40;;;;;;;;;;;;;;;;;;5038018;28;19948;-20
2023/05/29 13:29:06;;;;;;;;;;;;;;;;;;5037738;28;19987;-21
2023/05/29 13:31:32;;;;;;;;;;;;;;;;;;5038234;28;19999;-22
2023/05/29 13:33:58;;;;;;;;;;;;;;;;;;5036853;28;19913;-22
2023/05/29 13:36:24;;;;;;;;;;;;;;;;;;5037404;28;19909;-22
2023/05/29 13:38:50;;;;;;;;;;;;;;;;;;5037610;28;19971;-22
2023/05/29 13:41:16;;;;;;;;;;;;;;;;;;5037263;28;19917;-22
2023/05/29 13:43:42;;;;;;;;;;;;;;;;;;5037091;28;19909;-21
2023/05/29 13:46:08;;;;;;;;;;;;;;;;;;5037355;28;20066;-22
2023/05/29 13:48:34;;;;;;;;;;;;;;;;;;5037156;28;20354;-20
2023/05/29 13:51:00;;;;;;;;;;;;;;;;;;5037324;28;19932;-22
2023/05/29 13:53:26;;;;;;;;;;;;;;;;;;5036943;28;19909;-20
2023/05/29 13:55:52;;;;;;;;;;;;;;;;;;5035955;28;19920;-20
2023/05/29 13:58:18;;;;;;;;;;;;;;;;;;5036944;28;19909;-21
2023/05/29 14:00:44;;;;;;;;;;;;;;;;;;5037190;28;20237;-20
2023/05/29 14:03:10;;;;;;;;;;;;;;;;;;5035610;28;19925;-22
2023/05/29 14:05:36;;;;;;;;;;;;;;;;;;5035793;28;19951;-22
2023/05/29 14:08:02;;;;;;;;;;;;;;;;;;5037057;28;19959;-20
2023/05/29 14:10:28;;;;;;;;;;;;;;;;;;5037021;28;19909;-20
2023/05/29 14:12:55;;;;;;;;;;;;;;;;;;5036650;28;20356;-21
2023/05/29 14:15:21;;;;;;;;;;;;;;;;;;5036916;28;19920;-22
2023/05/29 14:17:47;;;;;;;;;;;;;;;;;;5036867;28;20344;-22
2023/05/29 14:20:13;;;;;;;;;;;;;;;;;;5036864;28;19909;-22
2023/05/29 14:22:39;;;;;;;;;;;;;;;;;;5036426;28;19910;-21
2023/05/29 14:25:05;;;;;;;;;;;;;;;;;;5036634;28;19975;-21
2023/05/29 14:27:31;;;;;;;;;;;;;;;;;;5036384;28;20244;-20
2023/05/29 14:29:57;;;;;;;;;;;;;;;;;;5036518;28;19919;-21
2023/05/29 14:32:23;;;;;;;;;;;;;;;;;;5036148;28;19910;-22
2023/05/29 14:34:49;;;;;;;;;;;;;;;;;;5036478;28;19913;-23
2023/05/29 14:37:15;;;;;;;;;;;;;;;;;;5036201;28;20004;-21
2023/05/29 14:39:41;;;;;;;;;;;;;;;;;;5036246;28;19952;-20
2023/05/29 14:42:07;;;;;;;;;;;;;;;;;;5036289;28;19909;-19
2023/05/29 14:44:33;;;;;;;;;;;;;;;;;;5035178;28;19923;-20
2023/05/29 14:46:59;;;;;;;;;;;;;;;;;;5035922;28;20015;-22
2023/05/29 14:49:28;;;;;;;;;;;;;;;;;;5036031;28;19952;-21
2023/05/29 14:51:54;;;;;;;;;;;;;;;;;;5035871;28;19924;-21
2023/05/29 14:54:20;;;;;;;;;;;;;;;;;;5034868;28;20019;-19
2023/05/29 14:56:46;;;;;;;;;;;;;;;;;;5036088;28;19913;-21
2023/05/29 14:59:12;;;;;;;;;;;;;;;;;;5035799;28;19909;-21
2023/05/29 15:01:38;;;;;;;;;;;;;;;;;;5035723;28;19983;-19
2023/05/29 15:04:03;;;;;;;;;;;;;;;;;;5035347;28;20004;-21
2023/05/29 15:06:31;;;;;;;;;;;;;;;;;;5035802;28;19913;-21
2023/05/29 15:08:58;;;;;;;;;;;;;;;;;;5035833;28;19920;-21
2023/05/29 15:11:24;;;;;;;;;;;;;;;;;;5035607;28;19979;-21
2023/05/29 15:13:50;;;;;;;;;;;;;;;;;;5035717;28;20351;-22
2023/05/29 15:16:16;;;;;;;;;;;;;;;;;;5035519;28;20240;-20
2023/05/29 15:18:42;;;;;;;;;;;;;;;;;;5035495;28;20318;-22
2023/05/29 15:21:08;;;;;;;;;;;;;;;;;;5035381;28;20008;-21
2023/05/29 15:23:35;;;;;;;;;;;;;;;;;;5035321;28;19913;-21
2023/05/29 15:26:02;;;;;;;;;;;;;;;;;;5035584;28;19913;-21
2023/05/29 15:28:28;;;;;;;;;;;;;;;;;;5035242;28;19909;-21
2023/05/29 15:30:54;;;;;;;;;;;;;;;;;;5035532;28;19920;-20
2023/05/29 15:33:20;;;;;;;;;;;;;;;;;;5035249;28;19952;-20
2023/05/29 15:35:46;;;;;;;;;;;;;;;;;;5035179;28;19920;-21
2023/05/29 15:38:12;;;;;;;;;;;;;;;;;;5035138;28;19909;-21
2023/05/29 15:40:38;;;;;;;;;;;;;;;;;;5035070;28;20055;-21
2023/05/29 15:43:04;;;;;;;;;;;;;;;;;;5034854;28;19945;-19
2023/05/29 15:45:30;;;;;;;;;;;;;;;;;;5034928;28;19913;-21
2023/05/29 15:47:56;;;;;;;;;;;;;;;;;;5035213;28;19909;-21
2023/05/29 15:50:22;;;;;;;;;;;;;;;;;;5034953;28;19996;-21
2023/05/29 15:52:48;;;;;;;;;;;;;;;;;;5035347;28;19909;-21
2023/05/29 15:55:14;;;;;;;;;;;;;;;;;;5034900;28;19971;-21
2023/05/29 15:57:40;;;;;;;;;;;;;;;;;;5034689;28;19913;-20
2023/05/29 16:00:06;;;;;;;;;;;;;;;;;;5035061;28;19952;-20
2023/05/29 16:02:32;;;;;;;;;;;;;;;;;;5034561;28;20318;-20
2023/05/29 16:04:58;;;;;;;;;;;;;;;;;;5034935;28;19909;-22
2023/05/29 16:07:24;;;;;;;;;;;;;;;;;;5034732;28;19917;-21
2023/05/29 16:09:51;;;;;;;;;;;;;;;;;;5034928;28;19916;-21
2023/05/29 16:12:17;;;;;;;;;;;;;;;;;;5034972;28;19945;-21
2023/05/29 16:14:43;;;;;;;;;;;;;;;;;;5034890;28;19920;-19
2023/05/29 16:17:09;;;;;;;;;;;;;;;;;;5034897;28;19909;-21
2023/05/29 16:19:34;;;;;;;;;;;;;;;;;;5033576;28;19911;-20
2023/05/29 16:22:00;;;;;;;;;;;;;;;;;;5034448;28;19910;-20
2023/05/29 16:24:26;;;;;;;;;;;;;;;;;;5034560;28;20251;-21
2023/05/29 16:26:52;;;;;;;;;;;;;;;;;;5034713;28;19924;-21
2023/05/29 16:29:19;;;;;;;;;;;;;;;;;;5034488;28;19909;-22
2023/05/29 16:31:45;;;;;;;;;;;;;;;;;;5034356;28;20352;-21
2023/05/29 16:34:11;;;;;;;;;;;;;;;;;;5034721;28;19938;-21
2023/05/29 16:36:37;;;;;;;;;;;;;;;;;;5034503;28;20015;-21
2023/05/29 16:39:03;;;;;;;;;;;;;;;;;;5034612;28;19909;-21